createdAt,value
2024-01-24T00:01:44.099Z,8.40
2024-01-24T00:04:48.076Z,3.95
2024-01-24T00:07:50.743Z,5.40
2024-01-24T00:10:53.399Z,4.05
2024-01-24T00:13:56.018Z,3.55
2024-01-24T00:16:58.636Z,3.03
2024-01-24T00:20:02.984Z,4.75
2024-01-24T00:23:05.841Z,5.50
2024-01-24T00:26:08.974Z,3.50
2024-01-24T00:29:11.573Z,4.63
2024-01-24T00:32:14.247Z,5.75
2024-01-24T00:35:18.329Z,2.63
2024-01-24T00:38:21.044Z,7.32
2024-01-24T00:41:23.654Z,6.50
2024-01-24T00:44:27.020Z,8.63
2024-01-24T00:47:29.644Z,5.05
2024-01-24T00:50:35.638Z,7.93
2024-01-24T00:53:38.784Z,10.98
2024-01-24T00:56:41.760Z,4.38
2024-01-24T00:59:44.407Z,4.03
2024-01-24T01:02:47.079Z,6.32
2024-01-24T01:05:51.085Z,3.75
2024-01-24T01:08:53.714Z,7.10
2024-01-24T01:11:56.373Z,8.55
2024-01-24T01:14:59.031Z,9.20
2024-01-24T01:18:01.649Z,6.05
2024-01-24T01:21:05.746Z,13.55
2024-01-24T01:24:09.275Z,12.80
2024-01-24T01:27:11.971Z,13.05
2024-01-24T01:30:15.437Z,19.90
2024-01-24T01:33:18.419Z,12.63
2024-01-24T01:36:23.664Z,9.00
2024-01-24T01:39:26.743Z,9.70
2024-01-24T01:42:29.408Z,5.80
2024-01-24T01:45:33.111Z,13.27
2024-01-24T01:48:36.038Z,4.95
2024-01-24T01:51:40.724Z,10.93
2024-01-24T01:54:44.020Z,10.93
2024-01-24T01:57:46.746Z,11.55
2024-01-24T02:00:49.429Z,7.88
2024-01-24T02:03:52.378Z,13.77
2024-01-24T02:06:57.608Z,18.67
2024-01-24T02:10:00.427Z,14.68
2024-01-24T02:13:03.846Z,19.58
2024-01-24T02:16:07.469Z,22.73
2024-01-24T02:19:10.255Z,18.20
2024-01-24T02:22:14.345Z,19.25
2024-01-24T02:25:18.341Z,24.63
2024-01-24T02:28:21.137Z,26.23
2024-01-24T02:31:23.780Z,26.67
2024-01-24T02:34:26.535Z,9.05
2024-01-24T02:37:29.170Z,32.30
2024-01-24T02:40:33.150Z,14.02
2024-01-24T02:43:35.850Z,16.45
2024-01-24T02:46:38.514Z,22.95
2024-01-24T02:49:41.752Z,19.63
2024-01-24T02:52:44.572Z,8.60
2024-01-24T02:55:48.505Z,25.83
2024-01-24T02:58:51.226Z,29.42
2024-01-24T03:01:53.826Z,34.20
2024-01-24T03:04:56.513Z,32.50
2024-01-24T03:07:59.445Z,30.95
2024-01-24T03:11:03.402Z,26.83
2024-01-24T03:14:05.974Z,25.98
2024-01-24T03:17:09.155Z,29.52
2024-01-24T03:20:13.570Z,22.95
2024-01-24T03:23:17.869Z,25.30
2024-01-24T03:26:21.858Z,20.52
2024-01-24T03:29:24.482Z,21.80
2024-01-24T03:32:27.224Z,32.55
2024-01-24T03:35:29.858Z,37.05
2024-01-24T03:38:32.450Z,35.80
2024-01-24T03:41:37.372Z,35.33
2024-01-24T03:44:40.517Z,28.80
2024-01-24T03:47:43.173Z,27.33
2024-01-24T03:50:45.777Z,23.55
2024-01-24T03:53:48.355Z,37.55
2024-01-24T03:56:52.368Z,34.13
2024-01-24T03:59:55.013Z,34.53
2024-01-24T04:02:57.668Z,41.75
2024-01-24T04:06:00.471Z,31.23
2024-01-24T04:09:04.343Z,33.17
2024-01-24T04:12:08.593Z,20.08
2024-01-24T04:15:11.666Z,35.13
2024-01-24T04:18:14.585Z,24.05
2024-01-24T04:21:17.384Z,36.90
2024-01-24T04:24:20.079Z,38.55
2024-01-24T04:27:24.705Z,31.40
2024-01-24T04:30:27.581Z,39.38
2024-01-24T04:33:30.565Z,38.10
2024-01-24T04:36:33.578Z,31.02
2024-01-24T04:39:36.588Z,24.63
2024-01-24T04:42:40.725Z,31.88
2024-01-24T04:45:43.475Z,41.33
2024-01-24T04:48:46.263Z,30.42
2024-01-24T04:51:49.950Z,38.05
2024-01-24T04:54:53.524Z,35.53
2024-01-24T04:57:57.670Z,46.78
2024-01-24T05:01:01.436Z,44.72
2024-01-24T05:04:04.405Z,39.50
2024-01-24T05:07:07.386Z,22.48
2024-01-24T05:10:10.468Z,42.25
2024-01-24T05:13:14.540Z,54.63
2024-01-24T05:16:17.187Z,30.60
2024-01-24T05:19:19.894Z,49.38
2024-01-24T05:22:22.735Z,56.72
2024-01-24T05:25:25.500Z,39.13
2024-01-24T05:28:29.457Z,54.92
2024-01-24T05:31:32.139Z,16.60
2024-01-24T05:34:34.926Z,45.28
2024-01-24T05:37:37.679Z,47.80
2024-01-24T05:40:40.290Z,44.65
2024-01-24T05:43:44.283Z,46.42
2024-01-24T05:46:46.916Z,77.78
2024-01-24T05:49:49.813Z,52.20
2024-01-24T05:52:52.494Z,64.40
2024-01-24T05:55:55.666Z,54.50
2024-01-24T05:58:59.656Z,49.55
2024-01-24T06:02:02.401Z,58.45
2024-01-24T06:05:05.701Z,31.80
2024-01-24T06:08:08.483Z,64.75
2024-01-24T06:11:12.340Z,49.63
2024-01-24T06:14:16.305Z,54.33
2024-01-24T06:17:18.873Z,38.42
2024-01-24T06:20:21.487Z,42.97
2024-01-24T06:23:24.162Z,40.08
2024-01-24T06:26:26.819Z,27.48
2024-01-24T06:30:15.542Z,26.73
2024-01-24T06:32:53.648Z,33.78
2024-01-24T06:35:56.385Z,41.40
2024-01-24T06:38:59.027Z,41.22
2024-01-24T06:42:01.933Z,37.05
2024-01-24T06:45:07.304Z,36.63
2024-01-24T06:48:09.978Z,47.88
2024-01-24T06:51:14.309Z,37.17
2024-01-24T06:54:17.436Z,33.50
2024-01-24T06:57:20.150Z,55.50
2024-01-24T07:00:24.606Z,32.53
2024-01-24T07:03:27.603Z,40.50
2024-01-24T07:06:30.365Z,34.50
2024-01-24T07:09:33.434Z,37.20
2024-01-24T07:12:36.095Z,44.03
2024-01-24T07:15:40.865Z,25.52
2024-01-24T07:18:43.653Z,53.80
2024-01-24T07:21:47.265Z,24.83
2024-01-24T07:24:49.968Z,34.25
2024-01-24T07:27:53.303Z,27.73
2024-01-24T07:30:57.393Z,41.78
2024-01-24T07:34:00.404Z,46.13
2024-01-24T07:37:03.215Z,36.65
2024-01-24T07:40:07.043Z,30.20
2024-01-24T07:43:09.817Z,42.50
2024-01-24T07:46:14.250Z,49.30
2024-01-24T07:49:17.066Z,41.42
2024-01-24T07:52:28.711Z,50.00
2024-01-24T07:55:51.214Z,52.25
2024-01-24T07:58:58.999Z,46.35
2024-01-24T08:02:04.252Z,37.97
2024-01-24T08:05:07.572Z,41.50
2024-01-24T08:08:10.541Z,60.15
2024-01-24T08:11:13.587Z,53.75
2024-01-24T08:14:16.289Z,49.38
2024-01-24T08:17:20.377Z,33.50
2024-01-24T08:20:23.254Z,42.78
2024-01-24T08:23:34.007Z,42.88
2024-01-24T08:26:41.255Z,54.20
2024-01-24T08:29:44.509Z,52.72
2024-01-24T08:32:49.167Z,36.42
2024-01-24T08:35:52.259Z,36.22
2024-01-24T08:38:54.842Z,45.83
2024-01-24T08:41:57.677Z,46.35
2024-01-24T08:45:00.287Z,45.40
2024-01-24T08:48:04.648Z,53.20
2024-01-24T08:51:07.405Z,45.85
2024-01-24T08:54:10.030Z,43.95
2024-01-24T08:57:12.726Z,33.38
2024-01-24T09:00:15.976Z,38.05
2024-01-24T09:03:20.967Z,54.13
2024-01-24T09:06:23.889Z,54.88
2024-01-24T09:09:26.865Z,39.17
2024-01-24T09:12:29.584Z,41.90
2024-01-24T09:15:32.762Z,42.70
2024-01-24T09:18:39.631Z,38.25
2024-01-24T09:21:42.698Z,40.78
2024-01-24T09:24:45.913Z,44.55
2024-01-24T09:27:48.754Z,43.20
2024-01-24T09:30:51.462Z,44.33
2024-01-24T09:33:55.642Z,44.17
2024-01-24T09:36:58.580Z,46.40
2024-01-24T09:40:01.527Z,42.72
2024-01-24T09:43:04.417Z,34.50
2024-01-24T09:46:07.493Z,45.60
2024-01-24T09:49:11.824Z,42.63
2024-01-24T09:52:14.733Z,32.92
2024-01-24T09:55:20.420Z,42.33
2024-01-24T09:58:23.169Z,50.92
2024-01-24T10:01:25.910Z,40.50
2024-01-24T10:04:29.938Z,29.48
2024-01-24T10:07:32.744Z,54.45
2024-01-24T10:10:35.417Z,53.53
2024-01-24T10:13:38.845Z,37.33
2024-01-24T10:16:43.354Z,49.28
2024-01-24T10:19:47.401Z,38.72
2024-01-24T10:22:51.286Z,44.55
2024-01-24T10:25:53.983Z,33.08
2024-01-24T10:28:56.775Z,40.17
2024-01-24T10:32:00.153Z,28.73
2024-01-24T10:35:06.967Z,31.63
2024-01-24T10:38:10.805Z,26.77
2024-01-24T10:41:14.208Z,33.92
2024-01-24T10:44:18.656Z,44.15
2024-01-24T10:47:22.467Z,41.75
2024-01-24T10:50:26.744Z,32.13
2024-01-24T10:53:29.443Z,38.40
2024-01-24T10:56:32.385Z,24.48
2024-01-24T10:59:35.128Z,41.00
2024-01-24T11:02:38.224Z,40.13
2024-01-24T11:05:44.555Z,38.35
2024-01-24T11:08:51.267Z,38.45
2024-01-24T11:11:55.573Z,46.85
2024-01-24T11:15:04.362Z,41.13
2024-01-24T11:18:24.013Z,41.38
2024-01-24T11:21:30.426Z,44.42
2024-01-24T11:24:49.061Z,45.38
2024-01-24T11:27:57.836Z,33.40
2024-01-24T11:31:00.678Z,41.17
2024-01-24T11:34:10.170Z,32.05
2024-01-24T11:37:16.269Z,35.53
2024-01-24T11:40:19.580Z,43.33
2024-01-24T11:43:25.983Z,40.35
2024-01-24T11:46:29.161Z,47.55
2024-01-24T11:49:32.986Z,45.70
2024-01-24T11:52:37.076Z,24.73
2024-01-24T11:55:39.697Z,28.75
2024-01-24T11:58:42.498Z,46.30
2024-01-24T12:01:45.782Z,29.60
2024-01-24T12:04:51.234Z,52.65
2024-01-24T12:07:55.258Z,50.05
2024-01-24T12:10:57.917Z,30.33
2024-01-24T12:14:00.605Z,44.65
2024-01-24T12:17:09.896Z,40.58
2024-01-24T12:20:26.561Z,51.20
2024-01-24T12:23:30.670Z,47.45
2024-01-24T12:26:33.543Z,42.28
2024-01-24T12:29:36.198Z,46.63
2024-01-24T12:32:39.059Z,53.80
2024-01-24T12:35:45.253Z,41.13
2024-01-24T12:38:51.328Z,46.10
2024-01-24T12:41:54.114Z,58.30
2024-01-24T12:44:56.767Z,44.10
2024-01-24T12:47:59.601Z,39.72
2024-01-24T12:51:02.300Z,37.42
2024-01-24T12:54:06.914Z,42.53
2024-01-24T12:57:09.587Z,50.28
2024-01-24T13:00:13.369Z,47.35
2024-01-24T13:03:16.391Z,49.67
2024-01-24T13:06:20.635Z,48.25
2024-01-24T13:09:24.830Z,47.80
2024-01-24T13:12:27.730Z,37.38
2024-01-24T13:15:33.519Z,43.08
2024-01-24T13:18:36.294Z,48.08
2024-01-24T13:21:42.662Z,34.13
2024-01-24T13:24:47.899Z,43.65
2024-01-24T13:27:56.768Z,37.22
2024-01-24T13:30:59.537Z,43.72
2024-01-24T13:34:02.288Z,29.73
2024-01-24T13:37:05.014Z,43.25
2024-01-24T13:40:12.566Z,36.15
2024-01-24T13:43:16.321Z,41.40
2024-01-24T13:46:19.073Z,23.45
2024-01-24T13:49:21.989Z,39.28
2024-01-24T13:52:24.752Z,37.63
2024-01-24T13:55:28.689Z,57.83
2024-01-24T13:58:31.527Z,39.65
2024-01-24T14:01:38.276Z,38.17
2024-01-24T14:04:45.706Z,39.03
2024-01-24T14:07:48.536Z,43.28
2024-01-24T14:10:52.530Z,35.17
2024-01-24T14:13:55.166Z,44.80
2024-01-24T14:16:57.818Z,43.20
2024-01-24T14:20:00.613Z,37.22
2024-01-24T14:23:04.819Z,34.70
2024-01-24T14:26:11.091Z,45.35
2024-01-24T14:32:17.392Z,48.72
2024-01-24T14:35:20.242Z,39.47
2024-01-24T14:38:23.022Z,54.28
2024-01-24T14:41:27.017Z,51.25
2024-01-24T14:44:29.971Z,39.10
2024-01-24T14:47:32.616Z,47.00
2024-01-24T14:50:35.222Z,42.53
2024-01-24T14:53:37.797Z,36.33
2024-01-24T14:56:42.244Z,43.20
2024-01-24T14:59:45.689Z,35.45
2024-01-24T15:02:48.484Z,53.55
2024-01-24T15:05:51.767Z,30.90
2024-01-24T15:08:54.574Z,40.42
2024-01-24T15:11:59.729Z,40.70
2024-01-24T15:15:04.390Z,33.42
2024-01-24T15:18:07.785Z,40.50
2024-01-24T15:21:13.414Z,41.60
2024-01-24T15:24:16.979Z,46.53
2024-01-24T15:27:23.008Z,50.58
2024-01-24T15:30:25.782Z,36.25
2024-01-24T15:33:28.699Z,39.08
2024-01-24T15:36:31.455Z,47.60
2024-01-24T15:39:34.747Z,43.78
2024-01-24T15:42:42.948Z,39.50
2024-01-24T15:45:46.987Z,31.50
2024-01-24T15:48:50.149Z,34.20
2024-01-24T15:51:54.626Z,34.22
2024-01-24T15:54:57.328Z,38.83
2024-01-24T15:58:01.439Z,42.13
2024-01-24T16:01:05.243Z,36.97
2024-01-24T16:04:08.344Z,34.47
2024-01-24T16:07:11.297Z,36.13
2024-01-24T16:10:14.294Z,38.92
2024-01-24T16:13:18.518Z,37.10
2024-01-24T16:16:21.255Z,39.95
2024-01-24T16:19:24.323Z,42.70
2024-01-24T16:22:32.932Z,36.10
2024-01-24T16:25:39.315Z,35.78
2024-01-24T16:28:44.484Z,33.90
2024-01-24T16:31:47.182Z,40.03
2024-01-24T16:34:50.098Z,33.80
2024-01-24T16:37:53.782Z,32.17
2024-01-24T16:40:56.417Z,37.65
2024-01-24T16:44:00.394Z,38.22
2024-01-24T16:47:03.154Z,34.95
2024-01-24T16:50:06.956Z,25.17
2024-01-24T16:53:10.803Z,35.15
2024-01-24T16:56:13.759Z,41.60
2024-01-24T16:59:17.727Z,37.45
2024-01-24T17:02:20.568Z,28.17
2024-01-24T17:05:23.789Z,39.13
2024-01-24T17:08:26.397Z,36.00
2024-01-24T17:11:29.046Z,29.35
2024-01-24T17:14:33.072Z,32.45
2024-01-24T17:17:35.816Z,30.42
2024-01-24T17:20:38.513Z,35.33
2024-01-24T17:23:41.197Z,28.42
2024-01-24T17:26:43.803Z,27.55
2024-01-24T17:29:47.957Z,42.22
2024-01-24T17:32:50.814Z,22.73
2024-01-24T17:35:53.471Z,37.13
2024-01-24T17:38:56.664Z,33.70
2024-01-24T17:41:59.473Z,39.63
2024-01-24T17:45:03.683Z,32.42
2024-01-24T17:48:07.397Z,33.30
2024-01-24T17:51:10.124Z,25.73
2024-01-24T17:54:12.821Z,28.05
2024-01-24T17:57:16.373Z,29.52
2024-01-24T18:00:21.077Z,36.03
2024-01-24T18:03:23.876Z,33.03
2024-01-24T18:06:26.514Z,26.77
2024-01-24T18:09:29.164Z,34.03
2024-01-24T18:12:32.527Z,27.25
2024-01-24T18:15:36.599Z,34.35
2024-01-24T18:18:39.514Z,32.97
2024-01-24T18:21:42.240Z,35.70
2024-01-24T18:24:46.942Z,32.05
2024-01-24T18:27:49.709Z,31.30
2024-01-24T18:30:54.089Z,34.05
2024-01-24T18:33:56.829Z,25.98
2024-01-24T18:36:59.656Z,22.50
2024-01-24T18:40:02.498Z,23.65
2024-01-24T18:43:05.965Z,24.73
2024-01-24T18:46:10.207Z,34.35
2024-01-24T18:49:13.321Z,32.03
2024-01-24T18:52:16.516Z,39.92
2024-01-24T18:55:21.902Z,28.90
2024-01-24T18:58:26.540Z,22.20
2024-01-24T19:01:30.704Z,33.55
2024-01-24T19:04:33.711Z,27.42
2024-01-24T19:07:37.278Z,35.78
2024-01-24T19:10:39.918Z,29.02
2024-01-24T19:13:42.731Z,28.10
2024-01-24T19:16:46.980Z,34.92
2024-01-24T19:19:49.764Z,21.17
2024-01-24T19:22:54.469Z,34.25
2024-01-24T19:25:57.324Z,28.95
2024-01-24T19:29:00.012Z,20.02
2024-01-24T19:32:04.200Z,31.45
2024-01-24T19:35:07.182Z,32.30
2024-01-24T19:38:11.033Z,32.25
2024-01-24T19:41:13.695Z,23.08
2024-01-24T19:44:17.902Z,32.13
2024-01-24T19:47:22.085Z,20.55
2024-01-24T19:50:24.873Z,32.05
2024-01-24T19:53:33.146Z,35.97
2024-01-24T19:56:36.414Z,36.83
2024-01-24T19:59:39.308Z,26.60
2024-01-24T20:02:43.242Z,33.13
2024-01-24T20:05:45.922Z,35.72
2024-01-24T20:08:49.327Z,26.90
2024-01-24T20:11:54.072Z,28.63
2024-01-24T20:14:57.028Z,29.00
2024-01-24T20:18:01.228Z,33.67
2024-01-24T20:21:03.909Z,34.35
2024-01-24T20:24:08.914Z,36.00
2024-01-24T20:27:11.688Z,29.60
2024-01-24T20:30:14.628Z,30.55
2024-01-24T20:33:18.648Z,34.08
2024-01-24T20:36:23.217Z,31.15
2024-01-24T20:39:26.592Z,32.65
2024-01-24T20:42:30.240Z,33.83
2024-01-24T20:45:33.079Z,24.63
2024-01-24T20:48:37.270Z,38.42
2024-01-24T20:51:40.732Z,39.08
2024-01-24T20:54:43.733Z,31.40
2024-01-24T20:57:46.654Z,31.85
2024-01-24T21:00:49.588Z,31.80
2024-01-24T21:03:54.533Z,30.77
2024-01-24T21:06:58.690Z,32.20
2024-01-24T21:10:01.548Z,29.65
2024-01-24T21:13:04.625Z,31.77
2024-01-24T21:16:07.293Z,35.85
2024-01-24T21:19:17.146Z,33.55
2024-01-24T21:22:20.091Z,33.58
2024-01-24T21:25:22.825Z,35.15
2024-01-24T21:28:25.465Z,37.83
2024-01-24T21:31:28.831Z,36.63
2024-01-24T21:34:32.994Z,35.97
2024-01-24T21:37:35.697Z,32.60
2024-01-24T21:40:38.426Z,37.58
2024-01-24T21:43:41.002Z,33.30
2024-01-24T21:46:43.645Z,33.78
2024-01-24T21:49:48.245Z,33.47
2024-01-24T21:52:50.935Z,32.47
2024-01-24T21:55:53.552Z,37.55
2024-01-24T21:58:56.442Z,36.60
2024-01-24T22:01:59.506Z,30.70
2024-01-24T22:05:03.575Z,31.00
2024-01-24T22:08:07.830Z,29.73
2024-01-24T22:11:10.780Z,35.45
2024-01-24T22:14:13.467Z,35.92
2024-01-24T22:17:16.093Z,32.95
2024-01-24T22:20:20.111Z,42.08
2024-01-24T22:23:22.754Z,39.65
2024-01-24T22:26:25.416Z,35.05
2024-01-24T22:29:28.252Z,36.15
2024-01-24T22:32:30.907Z,33.80
2024-01-24T22:35:35.016Z,35.35
2024-01-24T22:38:37.797Z,34.92
2024-01-24T22:41:41.699Z,34.03
2024-01-24T22:44:44.349Z,40.85
2024-01-24T22:47:47.000Z,39.95
2024-01-24T22:50:51.052Z,28.67
2024-01-24T22:53:55.569Z,36.85
2024-01-24T22:56:58.278Z,34.90
2024-01-24T23:00:00.929Z,34.05
2024-01-24T23:03:03.550Z,35.50
2024-01-24T23:06:07.785Z,38.50
2024-01-24T23:09:10.358Z,37.50
2024-01-24T23:12:12.973Z,37.45
2024-01-24T23:15:15.647Z,50.72
2024-01-24T23:18:19.026Z,29.48
2024-01-24T23:21:23.038Z,36.42
2024-01-24T23:24:25.625Z,45.33
2024-01-24T23:27:28.247Z,35.85
2024-01-24T23:30:30.892Z,42.58
2024-01-24T23:33:35.715Z,43.75
2024-01-24T23:36:39.963Z,43.40
2024-01-24T23:39:42.857Z,44.75
2024-01-24T23:42:46.335Z,37.33
2024-01-24T23:45:49.077Z,42.72
2024-01-24T23:48:52.326Z,47.88
2024-01-24T23:51:56.645Z,40.40
2024-01-24T23:54:59.494Z,44.10
2024-01-24T23:58:02.209Z,51.08
